Shantou Waisha Airport
ZGOW : now visible

Airfield :











YOU CAN JOIN US ON...

 
LOGIN :

Register | Disclaimer

   EN    FR    IT 

 









Legend :    VFR   Marginal VFR   IFR   Intensive IFR   Very Intensive IFR
Visi :
Ceiling :
>= 8 km
>= 3000ft
5 to 8 km
1000 to 3000 ft
1500m to 5 km
500 to 1000 ft
800 to 1500m
200 to 500 ft
< 800m
< 200 ft
Symbols :   Thunderstorms  Fog  Heavy snow  Heavy precipitations  Wind > 20 kt






- Airport Elevation : 0 ft
- IATA code : SWA


ZGOW - Shantou Waisha

CURRENT METAR :
  • 161200Z 14001MPS 9999 FEW023 29/27 Q1010 NOSIG

EXPIRED METARs :
  • 161100Z 12002MPS 070V150 9999 FEW030 30/27 Q1010 NOSIG
  • 161000Z 36002MPS 320V050 9999 SCT040 29/27 Q1009 NOSIG
  • 160900Z 15003MPS 120V190 9999 -SHRA FEW030CB SCT040 27/26 Q1009 RETS NOSIG
  • 160800Z 31002MPS 280V340 9999 -TSRA FEW010 FEW023CB SCT030 26/25 Q1009 RESHRA BECMG AT0810 -SHRA

TAF TAF ZGOW
Valid from the 16 at 12:00 until the 17 at 12:00 UTC


160904Z 1612/1712 14003MPS 6000 SCT040 TX36/1706Z TN27/1622Z
TEMPO 1622/1701 2500 SHRA SCT030 FEW040CB
TEMPO 1705/1709 2500 TSRA SCT030 FEW040CB
ZGZU FIR / Asia



MET'MAP, your aeronautical weather chart ! - Copyright ORBIFLY December 2007 - Disclaimer

ORBIFLY MET'MAP TEAM :

Programming & Development : Alexandra Zaïnal
Original concept : Baudouin d'Aumeries
Technical & hardware support : Manuel Goepfert
Assistance : Marc-Olivier Méhu




SOURCES & CREDITS :

   NOAA       Earth
Advisory